sensor_id;sensor_type;location;lat;lon;timestamp;P1;durP1;ratioP1;P2;durP2;ratioP2
79583;SDS011;69053;57.338;18.700;2024-01-30T00:02:11;7.43;;;3.30;;
79583;SDS011;69053;57.338;18.700;2024-01-30T00:05:11;9.48;;;3.58;;
79583;SDS011;69053;57.338;18.700;2024-01-30T00:08:12;8.32;;;3.17;;
79583;SDS011;69053;57.338;18.700;2024-01-30T00:11:12;11.30;;;3.47;;
79583;SDS011;69053;57.338;18.700;2024-01-30T00:14:13;9.35;;;3.92;;
79583;SDS011;69053;57.338;18.700;2024-01-30T00:17:14;9.23;;;2.92;;
79583;SDS011;69053;57.338;18.700;2024-01-30T00:20:14;7.90;;;3.38;;
79583;SDS011;69053;57.338;18.700;2024-01-30T00:23:15;6.85;;;3.17;;
79583;SDS011;69053;57.338;18.700;2024-01-30T00:26:15;8.40;;;3.80;;
79583;SDS011;69053;57.338;18.700;2024-01-30T00:29:16;10.52;;;3.53;;
79583;SDS011;69053;57.338;18.700;2024-01-30T00:32:19;7.78;;;3.80;;
79583;SDS011;69053;57.338;18.700;2024-01-30T00:35:20;5.80;;;3.15;;
79583;SDS011;69053;57.338;18.700;2024-01-30T00:38:22;6.82;;;3.80;;
79583;SDS011;69053;57.338;18.700;2024-01-30T00:41:22;6.05;;;3.35;;
79583;SDS011;69053;57.338;18.700;2024-01-30T00:44:23;8.23;;;2.97;;
79583;SDS011;69053;57.338;18.700;2024-01-30T00:47:23;8.00;;;3.55;;
79583;SDS011;69053;57.338;18.700;2024-01-30T00:50:23;7.72;;;3.40;;
79583;SDS011;69053;57.338;18.700;2024-01-30T00:53:24;8.45;;;3.45;;
79583;SDS011;69053;57.338;18.700;2024-01-30T00:56:24;7.20;;;3.08;;
79583;SDS011;69053;57.338;18.700;2024-01-30T00:59:25;9.27;;;3.40;;
79583;SDS011;69053;57.338;18.700;2024-01-30T01:02:25;8.98;;;3.67;;
79583;SDS011;69053;57.338;18.700;2024-01-30T01:05:26;6.15;;;3.22;;
79583;SDS011;69053;57.338;18.700;2024-01-30T01:08:26;9.45;;;3.20;;
79583;SDS011;69053;57.338;18.700;2024-01-30T01:11:27;9.48;;;3.65;;
79583;SDS011;69053;57.338;18.700;2024-01-30T01:14:27;10.20;;;3.60;;
79583;SDS011;69053;57.338;18.700;2024-01-30T01:17:28;7.35;;;3.40;;
79583;SDS011;69053;57.338;18.700;2024-01-30T01:20:28;7.47;;;3.17;;
79583;SDS011;69053;57.338;18.700;2024-01-30T01:23:29;8.07;;;3.20;;
79583;SDS011;69053;57.338;18.700;2024-01-30T01:26:29;11.65;;;3.42;;
79583;SDS011;69053;57.338;18.700;2024-01-30T01:29:29;7.43;;;3.60;;
79583;SDS011;69053;57.338;18.700;2024-01-30T01:32:30;8.68;;;3.60;;
79583;SDS011;69053;57.338;18.700;2024-01-30T01:35:30;7.90;;;3.30;;
79583;SDS011;69053;57.338;18.700;2024-01-30T01:38:31;7.82;;;3.35;;
79583;SDS011;69053;57.338;18.700;2024-01-30T01:41:31;7.38;;;2.95;;
79583;SDS011;69053;57.338;18.700;2024-01-30T01:44:32;11.30;;;3.67;;
79583;SDS011;69053;57.338;18.700;2024-01-30T01:47:33;8.00;;;2.70;;
79583;SDS011;69053;57.338;18.700;2024-01-30T01:50:34;7.30;;;3.50;;
79583;SDS011;69053;57.338;18.700;2024-01-30T01:53:35;8.52;;;3.28;;
79583;SDS011;69053;57.338;18.700;2024-01-30T01:56:35;7.53;;;2.90;;
79583;SDS011;69053;57.338;18.700;2024-01-30T01:59:37;7.95;;;3.72;;
79583;SDS011;69053;57.338;18.700;2024-01-30T02:02:38;9.25;;;3.40;;
79583;SDS011;69053;57.338;18.700;2024-01-30T02:05:39;7.35;;;3.15;;
79583;SDS011;69053;57.338;18.700;2024-01-30T02:08:41;8.80;;;3.38;;
79583;SDS011;69053;57.338;18.700;2024-01-30T02:11:42;8.25;;;3.38;;
79583;SDS011;69053;57.338;18.700;2024-01-30T02:14:45;6.53;;;3.08;;
79583;SDS011;69053;57.338;18.700;2024-01-30T02:17:46;6.60;;;3.20;;
79583;SDS011;69053;57.338;18.700;2024-01-30T02:20:47;8.32;;;3.15;;
79583;SDS011;69053;57.338;18.700;2024-01-30T02:23:47;9.98;;;3.47;;
79583;SDS011;69053;57.338;18.700;2024-01-30T02:26:49;7.95;;;3.50;;
79583;SDS011;69053;57.338;18.700;2024-01-30T02:29:50;7.70;;;3.53;;
79583;SDS011;69053;57.338;18.700;2024-01-30T02:32:50;9.32;;;3.67;;
79583;SDS011;69053;57.338;18.700;2024-01-30T02:35:51;9.45;;;3.10;;
79583;SDS011;69053;57.338;18.700;2024-01-30T02:38:51;8.60;;;3.85;;
79583;SDS011;69053;57.338;18.700;2024-01-30T02:41:51;9.25;;;3.63;;
79583;SDS011;69053;57.338;18.700;2024-01-30T02:44:52;7.32;;;2.67;;
79583;SDS011;69053;57.338;18.700;2024-01-30T02:47:52;10.07;;;3.20;;
79583;SDS011;69053;57.338;18.700;2024-01-30T02:50:53;6.68;;;3.13;;
79583;SDS011;69053;57.338;18.700;2024-01-30T02:53:53;4.75;;;2.88;;
79583;SDS011;69053;57.338;18.700;2024-01-30T02:56:54;8.43;;;3.45;;
79583;SDS011;69053;57.338;18.700;2024-01-30T02:59:54;6.95;;;3.17;;
79583;SDS011;69053;57.338;18.700;2024-01-30T03:02:55;8.07;;;3.10;;
79583;SDS011;69053;57.338;18.700;2024-01-30T03:05:55;6.72;;;2.95;;
79583;SDS011;69053;57.338;18.700;2024-01-30T03:08:55;8.20;;;3.50;;
79583;SDS011;69053;57.338;18.700;2024-01-30T03:11:56;9.57;;;3.60;;
79583;SDS011;69053;57.338;18.700;2024-01-30T03:14:56;7.15;;;3.47;;
79583;SDS011;69053;57.338;18.700;2024-01-30T03:17:57;7.57;;;3.22;;
79583;SDS011;69053;57.338;18.700;2024-01-30T03:20:57;8.75;;;3.38;;
79583;SDS011;69053;57.338;18.700;2024-01-30T03:23:57;13.07;;;4.03;;
79583;SDS011;69053;57.338;18.700;2024-01-30T03:26:58;13.00;;;4.03;;
79583;SDS011;69053;57.338;18.700;2024-01-30T03:29:58;9.13;;;4.63;;
79583;SDS011;69053;57.338;18.700;2024-01-30T03:32:59;9.38;;;4.40;;
79583;SDS011;69053;57.338;18.700;2024-01-30T03:36:02;12.27;;;4.18;;
79583;SDS011;69053;57.338;18.700;2024-01-30T03:39:03;9.30;;;3.80;;
79583;SDS011;69053;57.338;18.700;2024-01-30T03:42:04;10.05;;;4.10;;
79583;SDS011;69053;57.338;18.700;2024-01-30T03:45:05;8.50;;;3.88;;
79583;SDS011;69053;57.338;18.700;2024-01-30T03:48:06;8.85;;;3.70;;
79583;SDS011;69053;57.338;18.700;2024-01-30T03:51:06;7.82;;;3.60;;
79583;SDS011;69053;57.338;18.700;2024-01-30T03:54:07;10.38;;;4.50;;
79583;SDS011;69053;57.338;18.700;2024-01-30T03:57:08;6.93;;;3.67;;
79583;SDS011;69053;57.338;18.700;2024-01-30T04:00:08;6.82;;;3.22;;
79583;SDS011;69053;57.338;18.700;2024-01-30T04:03:09;7.82;;;4.25;;
79583;SDS011;69053;57.338;18.700;2024-01-30T04:06:10;8.02;;;3.30;;
79583;SDS011;69053;57.338;18.700;2024-01-30T04:09:11;10.30;;;3.47;;
79583;SDS011;69053;57.338;18.700;2024-01-30T04:12:13;11.02;;;3.83;;
79583;SDS011;69053;57.338;18.700;2024-01-30T04:15:13;7.68;;;3.60;;
79583;SDS011;69053;57.338;18.700;2024-01-30T04:18:14;7.45;;;3.60;;
79583;SDS011;69053;57.338;18.700;2024-01-30T04:21:14;7.50;;;3.92;;
79583;SDS011;69053;57.338;18.700;2024-01-30T04:24:14;10.52;;;4.20;;
79583;SDS011;69053;57.338;18.700;2024-01-30T04:27:18;8.13;;;3.80;;
79583;SDS011;69053;57.338;18.700;2024-01-30T04:30:18;9.77;;;3.67;;
79583;SDS011;69053;57.338;18.700;2024-01-30T04:33:19;9.30;;;3.78;;
79583;SDS011;69053;57.338;18.700;2024-01-30T04:36:19;8.75;;;3.97;;
79583;SDS011;69053;57.338;18.700;2024-01-30T04:39:20;9.52;;;3.50;;
79583;SDS011;69053;57.338;18.700;2024-01-30T04:42:20;8.77;;;3.92;;
79583;SDS011;69053;57.338;18.700;2024-01-30T04:45:21;8.07;;;3.83;;
79583;SDS011;69053;57.338;18.700;2024-01-30T04:48:21;8.98;;;3.72;;
79583;SDS011;69053;57.338;18.700;2024-01-30T04:51:22;9.32;;;3.67;;
79583;SDS011;69053;57.338;18.700;2024-01-30T04:54:22;8.38;;;3.90;;
79583;SDS011;69053;57.338;18.700;2024-01-30T04:57:23;8.45;;;3.65;;
79583;SDS011;69053;57.338;18.700;2024-01-30T05:00:23;8.57;;;3.50;;
79583;SDS011;69053;57.338;18.700;2024-01-30T05:03:23;10.50;;;3.45;;
79583;SDS011;69053;57.338;18.700;2024-01-30T05:06:27;9.15;;;3.25;;
79583;SDS011;69053;57.338;18.700;2024-01-30T05:09:28;7.30;;;3.40;;
79583;SDS011;69053;57.338;18.700;2024-01-30T05:12:28;7.05;;;2.97;;
79583;SDS011;69053;57.338;18.700;2024-01-30T05:15:29;6.15;;;3.15;;
79583;SDS011;69053;57.338;18.700;2024-01-30T05:18:29;7.28;;;2.97;;
79583;SDS011;69053;57.338;18.700;2024-01-30T05:21:30;8.20;;;3.30;;
79583;SDS011;69053;57.338;18.700;2024-01-30T05:24:30;11.00;;;4.03;;
79583;SDS011;69053;57.338;18.700;2024-01-30T05:27:30;9.40;;;3.60;;
79583;SDS011;69053;57.338;18.700;2024-01-30T05:30:31;9.88;;;3.65;;
79583;SDS011;69053;57.338;18.700;2024-01-30T05:33:31;10.95;;;4.10;;
79583;SDS011;69053;57.338;18.700;2024-01-30T05:36:32;8.43;;;3.80;;
79583;SDS011;69053;57.338;18.700;2024-01-30T05:39:32;8.48;;;3.90;;
79583;SDS011;69053;57.338;18.700;2024-01-30T05:42:33;9.23;;;3.60;;
79583;SDS011;69053;57.338;18.700;2024-01-30T05:45:33;11.95;;;4.20;;
79583;SDS011;69053;57.338;18.700;2024-01-30T05:48:35;7.72;;;3.28;;
79583;SDS011;69053;57.338;18.700;2024-01-30T05:51:36;8.13;;;4.13;;
79583;SDS011;69053;57.338;18.700;2024-01-30T05:54:36;7.40;;;4.05;;
79583;SDS011;69053;57.338;18.700;2024-01-30T05:57:37;7.07;;;4.18;;
79583;SDS011;69053;57.338;18.700;2024-01-30T06:00:37;9.52;;;4.00;;
79583;SDS011;69053;57.338;18.700;2024-01-30T06:03:38;7.88;;;3.95;;
79583;SDS011;69053;57.338;18.700;2024-01-30T06:06:39;10.48;;;4.65;;
79583;SDS011;69053;57.338;18.700;2024-01-30T06:09:39;9.15;;;4.30;;
79583;SDS011;69053;57.338;18.700;2024-01-30T06:12:40;10.75;;;4.47;;
79583;SDS011;69053;57.338;18.700;2024-01-30T06:15:41;7.40;;;3.97;;
79583;SDS011;69053;57.338;18.700;2024-01-30T06:18:41;7.38;;;3.78;;
79583;SDS011;69053;57.338;18.700;2024-01-30T06:21:42;7.32;;;4.20;;
79583;SDS011;69053;57.338;18.700;2024-01-30T06:24:42;11.50;;;4.97;;
79583;SDS011;69053;57.338;18.700;2024-01-30T06:27:45;6.78;;;3.80;;
79583;SDS011;69053;57.338;18.700;2024-01-30T06:30:45;10.10;;;3.55;;
79583;SDS011;69053;57.338;18.700;2024-01-30T06:33:49;9.93;;;4.32;;
79583;SDS011;69053;57.338;18.700;2024-01-30T06:36:49;8.05;;;4.43;;
79583;SDS011;69053;57.338;18.700;2024-01-30T06:39:50;8.85;;;4.47;;
79583;SDS011;69053;57.338;18.700;2024-01-30T06:42:50;7.13;;;3.88;;
79583;SDS011;69053;57.338;18.700;2024-01-30T06:45:50;9.95;;;3.97;;
79583;SDS011;69053;57.338;18.700;2024-01-30T06:48:51;10.75;;;3.95;;
79583;SDS011;69053;57.338;18.700;2024-01-30T06:51:52;9.48;;;4.38;;
79583;SDS011;69053;57.338;18.700;2024-01-30T06:54:52;6.95;;;3.60;;
79583;SDS011;69053;57.338;18.700;2024-01-30T06:57:53;11.52;;;4.43;;
79583;SDS011;69053;57.338;18.700;2024-01-30T07:00:54;10.15;;;4.45;;
79583;SDS011;69053;57.338;18.700;2024-01-30T07:03:55;7.45;;;3.95;;
79583;SDS011;69053;57.338;18.700;2024-01-30T07:06:55;13.18;;;4.40;;
79583;SDS011;69053;57.338;18.700;2024-01-30T07:09:57;9.70;;;4.63;;
79583;SDS011;69053;57.338;18.700;2024-01-30T07:12:57;9.13;;;3.67;;
79583;SDS011;69053;57.338;18.700;2024-01-30T07:15:58;10.30;;;4.40;;
79583;SDS011;69053;57.338;18.700;2024-01-30T07:18:58;11.10;;;4.70;;
79583;SDS011;69053;57.338;18.700;2024-01-30T07:21:59;9.80;;;4.28;;
79583;SDS011;69053;57.338;18.700;2024-01-30T07:25:00;8.55;;;4.32;;
79583;SDS011;69053;57.338;18.700;2024-01-30T07:28:01;8.43;;;4.75;;
79583;SDS011;69053;57.338;18.700;2024-01-30T07:31:01;7.93;;;3.97;;
79583;SDS011;69053;57.338;18.700;2024-01-30T07:34:02;8.20;;;4.28;;
79583;SDS011;69053;57.338;18.700;2024-01-30T07:37:02;7.05;;;3.72;;
79583;SDS011;69053;57.338;18.700;2024-01-30T07:40:03;9.77;;;4.28;;
79583;SDS011;69053;57.338;18.700;2024-01-30T07:43:04;11.13;;;4.88;;
79583;SDS011;69053;57.338;18.700;2024-01-30T07:46:04;10.60;;;4.57;;
79583;SDS011;69053;57.338;18.700;2024-01-30T07:49:06;10.52;;;4.70;;
79583;SDS011;69053;57.338;18.700;2024-01-30T07:52:06;8.27;;;4.50;;
79583;SDS011;69053;57.338;18.700;2024-01-30T07:55:07;11.43;;;5.15;;
79583;SDS011;69053;57.338;18.700;2024-01-30T07:58:08;8.88;;;4.28;;
79583;SDS011;69053;57.338;18.700;2024-01-30T08:01:08;11.25;;;4.35;;
79583;SDS011;69053;57.338;18.700;2024-01-30T08:04:09;9.27;;;4.78;;
79583;SDS011;69053;57.338;18.700;2024-01-30T08:07:10;8.60;;;4.22;;
79583;SDS011;69053;57.338;18.700;2024-01-30T08:10:11;14.10;;;4.80;;
79583;SDS011;69053;57.338;18.700;2024-01-30T08:13:13;10.90;;;4.30;;
79583;SDS011;69053;57.338;18.700;2024-01-30T08:16:13;9.02;;;4.75;;
79583;SDS011;69053;57.338;18.700;2024-01-30T08:19:16;10.52;;;4.88;;
79583;SDS011;69053;57.338;18.700;2024-01-30T08:22:17;16.05;;;4.68;;
79583;SDS011;69053;57.338;18.700;2024-01-30T08:25:17;8.45;;;3.95;;
79583;SDS011;69053;57.338;18.700;2024-01-30T08:28:18;10.65;;;4.53;;
79583;SDS011;69053;57.338;18.700;2024-01-30T08:31:18;10.88;;;4.30;;
79583;SDS011;69053;57.338;18.700;2024-01-30T08:34:19;10.55;;;4.45;;
79583;SDS011;69053;57.338;18.700;2024-01-30T08:37:19;13.90;;;5.05;;
79583;SDS011;69053;57.338;18.700;2024-01-30T08:40:19;7.97;;;4.43;;
79583;SDS011;69053;57.338;18.700;2024-01-30T08:43:20;13.95;;;5.68;;
79583;SDS011;69053;57.338;18.700;2024-01-30T08:46:20;12.32;;;4.90;;
79583;SDS011;69053;57.338;18.700;2024-01-30T08:49:21;7.55;;;4.13;;
79583;SDS011;69053;57.338;18.700;2024-01-30T08:52:21;11.13;;;4.40;;
79583;SDS011;69053;57.338;18.700;2024-01-30T08:55:22;9.23;;;4.18;;
79583;SDS011;69053;57.338;18.700;2024-01-30T08:58:22;10.50;;;4.32;;
79583;SDS011;69053;57.338;18.700;2024-01-30T09:01:22;11.07;;;4.88;;
79583;SDS011;69053;57.338;18.700;2024-01-30T09:04:23;10.13;;;4.00;;
79583;SDS011;69053;57.338;18.700;2024-01-30T09:07:24;9.93;;;5.28;;
79583;SDS011;69053;57.338;18.700;2024-01-30T09:10:24;9.80;;;4.15;;
79583;SDS011;69053;57.338;18.700;2024-01-30T09:13:25;7.40;;;4.22;;
79583;SDS011;69053;57.338;18.700;2024-01-30T09:16:25;9.23;;;4.65;;
79583;SDS011;69053;57.338;18.700;2024-01-30T09:19:25;12.02;;;4.20;;
79583;SDS011;69053;57.338;18.700;2024-01-30T09:22:26;8.70;;;4.20;;
79583;SDS011;69053;57.338;18.700;2024-01-30T09:25:27;6.88;;;3.58;;
79583;SDS011;69053;57.338;18.700;2024-01-30T09:28:27;7.53;;;3.67;;
79583;SDS011;69053;57.338;18.700;2024-01-30T09:31:28;11.07;;;3.90;;
79583;SDS011;69053;57.338;18.700;2024-01-30T09:34:28;9.15;;;3.58;;
79583;SDS011;69053;57.338;18.700;2024-01-30T09:37:29;6.85;;;3.92;;
79583;SDS011;69053;57.338;18.700;2024-01-30T09:40:29;7.38;;;4.05;;
79583;SDS011;69053;57.338;18.700;2024-01-30T09:43:32;9.13;;;4.00;;
79583;SDS011;69053;57.338;18.700;2024-01-30T09:46:34;7.50;;;3.50;;
79583;SDS011;69053;57.338;18.700;2024-01-30T09:49:35;11.20;;;4.28;;
79583;SDS011;69053;57.338;18.700;2024-01-30T09:52:36;6.25;;;3.80;;
79583;SDS011;69053;57.338;18.700;2024-01-30T09:55:37;6.70;;;3.75;;
79583;SDS011;69053;57.338;18.700;2024-01-30T09:58:37;8.15;;;3.75;;
79583;SDS011;69053;57.338;18.700;2024-01-30T10:01:39;11.30;;;5.13;;
79583;SDS011;69053;57.338;18.700;2024-01-30T10:04:41;8.93;;;4.13;;
79583;SDS011;69053;57.338;18.700;2024-01-30T10:07:49;7.32;;;4.00;;
79583;SDS011;69053;57.338;18.700;2024-01-30T10:10:52;8.10;;;3.75;;
79583;SDS011;69053;57.338;18.700;2024-01-30T10:13:53;8.57;;;4.55;;
79583;SDS011;69053;57.338;18.700;2024-01-30T10:16:55;9.32;;;3.83;;
79583;SDS011;69053;57.338;18.700;2024-01-30T10:19:55;7.47;;;3.78;;
79583;SDS011;69053;57.338;18.700;2024-01-30T10:22:56;5.72;;;3.92;;
79583;SDS011;69053;57.338;18.700;2024-01-30T10:25:56;7.22;;;3.92;;
79583;SDS011;69053;57.338;18.700;2024-01-30T10:28:57;10.40;;;4.97;;
79583;SDS011;69053;57.338;18.700;2024-01-30T10:32:04;10.85;;;4.47;;
79583;SDS011;69053;57.338;18.700;2024-01-30T10:35:12;9.60;;;4.13;;
79583;SDS011;69053;57.338;18.700;2024-01-30T10:38:13;9.30;;;3.70;;
79583;SDS011;69053;57.338;18.700;2024-01-30T10:41:18;9.90;;;4.38;;
79583;SDS011;69053;57.338;18.700;2024-01-30T10:44:27;7.28;;;4.28;;
79583;SDS011;69053;57.338;18.700;2024-01-30T10:47:34;11.07;;;4.30;;
79583;SDS011;69053;57.338;18.700;2024-01-30T10:50:36;9.88;;;4.50;;
79583;SDS011;69053;57.338;18.700;2024-01-30T10:53:36;10.02;;;4.20;;
79583;SDS011;69053;57.338;18.700;2024-01-30T10:56:38;9.90;;;3.97;;
79583;SDS011;69053;57.338;18.700;2024-01-30T10:59:40;9.40;;;4.65;;
79583;SDS011;69053;57.338;18.700;2024-01-30T11:02:42;7.03;;;4.03;;
79583;SDS011;69053;57.338;18.700;2024-01-30T11:05:48;9.10;;;4.45;;
79583;SDS011;69053;57.338;18.700;2024-01-30T11:09:02;8.10;;;4.63;;
79583;SDS011;69053;57.338;18.700;2024-01-30T11:12:04;11.02;;;5.10;;
79583;SDS011;69053;57.338;18.700;2024-01-30T11:15:08;11.23;;;4.57;;
79583;SDS011;69053;57.338;18.700;2024-01-30T11:18:10;11.40;;;4.35;;
79583;SDS011;69053;57.338;18.700;2024-01-30T11:21:11;11.05;;;4.63;;
79583;SDS011;69053;57.338;18.700;2024-01-30T11:24:14;8.02;;;4.03;;
79583;SDS011;69053;57.338;18.700;2024-01-30T11:27:14;7.43;;;4.47;;
79583;SDS011;69053;57.338;18.700;2024-01-30T11:30:25;10.75;;;4.75;;
79583;SDS011;69053;57.338;18.700;2024-01-30T11:33:27;9.02;;;4.57;;
79583;SDS011;69053;57.338;18.700;2024-01-30T11:36:30;7.93;;;4.18;;
79583;SDS011;69053;57.338;18.700;2024-01-30T11:39:34;7.40;;;4.20;;
79583;SDS011;69053;57.338;18.700;2024-01-30T11:42:36;10.50;;;5.18;;
79583;SDS011;69053;57.338;18.700;2024-01-30T11:45:39;13.07;;;5.10;;
79583;SDS011;69053;57.338;18.700;2024-01-30T11:48:40;9.52;;;5.40;;
79583;SDS011;69053;57.338;18.700;2024-01-30T11:51:41;12.43;;;6.15;;
79583;SDS011;69053;57.338;18.700;2024-01-30T11:54:42;11.90;;;6.28;;
79583;SDS011;69053;57.338;18.700;2024-01-30T11:57:42;12.43;;;6.65;;
79583;SDS011;69053;57.338;18.700;2024-01-30T12:00:53;13.48;;;6.78;;
79583;SDS011;69053;57.338;18.700;2024-01-30T12:03:56;13.55;;;7.47;;
79583;SDS011;69053;57.338;18.700;2024-01-30T12:06:57;12.77;;;7.25;;
79583;SDS011;69053;57.338;18.700;2024-01-30T12:09:57;17.48;;;7.60;;
79583;SDS011;69053;57.338;18.700;2024-01-30T12:12:58;15.90;;;7.75;;
79583;SDS011;69053;57.338;18.700;2024-01-30T12:15:59;13.93;;;7.25;;
79583;SDS011;69053;57.338;18.700;2024-01-30T12:19:00;15.40;;;8.02;;
79583;SDS011;69053;57.338;18.700;2024-01-30T12:22:02;14.90;;;9.57;;
79583;SDS011;69053;57.338;18.700;2024-01-30T12:25:03;19.02;;;8.55;;
79583;SDS011;69053;57.338;18.700;2024-01-30T12:28:17;16.02;;;8.90;;
79583;SDS011;69053;57.338;18.700;2024-01-30T12:31:17;13.77;;;8.57;;
79583;SDS011;69053;57.338;18.700;2024-01-30T12:34:18;17.75;;;8.80;;
79583;SDS011;69053;57.338;18.700;2024-01-30T12:37:20;16.10;;;8.57;;
79583;SDS011;69053;57.338;18.700;2024-01-30T12:40:22;12.90;;;7.70;;
79583;SDS011;69053;57.338;18.700;2024-01-30T12:43:24;12.93;;;7.40;;
79583;SDS011;69053;57.338;18.700;2024-01-30T12:46:27;12.77;;;6.63;;
79583;SDS011;69053;57.338;18.700;2024-01-30T12:49:28;17.50;;;8.38;;
79583;SDS011;69053;57.338;18.700;2024-01-30T12:52:29;12.02;;;6.50;;
79583;SDS011;69053;57.338;18.700;2024-01-30T12:55:30;10.23;;;6.53;;
79583;SDS011;69053;57.338;18.700;2024-01-30T12:58:30;9.88;;;5.70;;
79583;SDS011;69053;57.338;18.700;2024-01-30T13:01:30;11.45;;;4.93;;
79583;SDS011;69053;57.338;18.700;2024-01-30T13:04:31;8.38;;;4.50;;
79583;SDS011;69053;57.338;18.700;2024-01-30T13:07:31;12.93;;;5.40;;
79583;SDS011;69053;57.338;18.700;2024-01-30T13:10:32;10.98;;;5.45;;
79583;SDS011;69053;57.338;18.700;2024-01-30T13:13:32;7.97;;;5.30;;
79583;SDS011;69053;57.338;18.700;2024-01-30T13:16:33;12.05;;;5.75;;
79583;SDS011;69053;57.338;18.700;2024-01-30T13:19:33;14.35;;;5.80;;
79583;SDS011;69053;57.338;18.700;2024-01-30T13:22:34;12.63;;;5.10;;
79583;SDS011;69053;57.338;18.700;2024-01-30T13:25:34;10.32;;;6.03;;
79583;SDS011;69053;57.338;18.700;2024-01-30T13:28:34;7.47;;;4.57;;
79583;SDS011;69053;57.338;18.700;2024-01-30T13:31:38;11.65;;;5.32;;
79583;SDS011;69053;57.338;18.700;2024-01-30T13:34:39;10.18;;;4.82;;
79583;SDS011;69053;57.338;18.700;2024-01-30T13:37:41;9.32;;;4.68;;
79583;SDS011;69053;57.338;18.700;2024-01-30T13:40:42;8.65;;;4.68;;
79583;SDS011;69053;57.338;18.700;2024-01-30T13:43:46;13.13;;;5.90;;
79583;SDS011;69053;57.338;18.700;2024-01-30T13:46:46;9.38;;;6.15;;
79583;SDS011;69053;57.338;18.700;2024-01-30T13:49:47;11.15;;;5.75;;
79583;SDS011;69053;57.338;18.700;2024-01-30T13:52:47;10.05;;;4.75;;
79583;SDS011;69053;57.338;18.700;2024-01-30T13:55:48;11.05;;;5.82;;
79583;SDS011;69053;57.338;18.700;2024-01-30T13:58:48;10.00;;;5.47;;
79583;SDS011;69053;57.338;18.700;2024-01-30T14:01:50;11.77;;;6.38;;
79583;SDS011;69053;57.338;18.700;2024-01-30T14:04:51;14.10;;;7.72;;
79583;SDS011;69053;57.338;18.700;2024-01-30T14:07:52;12.13;;;7.05;;
79583;SDS011;69053;57.338;18.700;2024-01-30T14:10:52;12.90;;;7.60;;
79583;SDS011;69053;57.338;18.700;2024-01-30T14:13:53;15.77;;;7.88;;
79583;SDS011;69053;57.338;18.700;2024-01-30T14:16:53;14.27;;;6.78;;
79583;SDS011;69053;57.338;18.700;2024-01-30T14:19:54;13.48;;;7.20;;
79583;SDS011;69053;57.338;18.700;2024-01-30T14:22:54;10.90;;;6.28;;
79583;SDS011;69053;57.338;18.700;2024-01-30T14:25:55;10.30;;;5.93;;
79583;SDS011;69053;57.338;18.700;2024-01-30T14:28:56;10.75;;;6.78;;
79583;SDS011;69053;57.338;18.700;2024-01-30T14:31:56;14.05;;;7.50;;
79583;SDS011;69053;57.338;18.700;2024-01-30T14:34:57;13.68;;;7.05;;
79583;SDS011;69053;57.338;18.700;2024-01-30T14:37:57;16.00;;;7.50;;
79583;SDS011;69053;57.338;18.700;2024-01-30T14:40:58;15.00;;;7.35;;
79583;SDS011;69053;57.338;18.700;2024-01-30T14:43:58;11.68;;;7.55;;
79583;SDS011;69053;57.338;18.700;2024-01-30T14:46:59;15.80;;;8.38;;
79583;SDS011;69053;57.338;18.700;2024-01-30T14:50:00;12.75;;;7.05;;
79583;SDS011;69053;57.338;18.700;2024-01-30T14:53:00;11.70;;;6.65;;
79583;SDS011;69053;57.338;18.700;2024-01-30T14:56:01;12.90;;;6.97;;
79583;SDS011;69053;57.338;18.700;2024-01-30T14:59:03;13.63;;;6.95;;
79583;SDS011;69053;57.338;18.700;2024-01-30T15:02:03;12.55;;;7.05;;
79583;SDS011;69053;57.338;18.700;2024-01-30T15:05:04;11.85;;;6.32;;
79583;SDS011;69053;57.338;18.700;2024-01-30T15:08:04;10.45;;;5.93;;
79583;SDS011;69053;57.338;18.700;2024-01-30T15:11:05;13.40;;;6.35;;
79583;SDS011;69053;57.338;18.700;2024-01-30T15:14:05;13.00;;;6.28;;
79583;SDS011;69053;57.338;18.700;2024-01-30T15:17:06;13.93;;;6.32;;
79583;SDS011;69053;57.338;18.700;2024-01-30T15:20:06;11.77;;;5.82;;
79583;SDS011;69053;57.338;18.700;2024-01-30T15:23:07;10.75;;;5.93;;
79583;SDS011;69053;57.338;18.700;2024-01-30T15:26:08;11.00;;;5.85;;
79583;SDS011;69053;57.338;18.700;2024-01-30T15:29:08;10.68;;;6.03;;
79583;SDS011;69053;57.338;18.700;2024-01-30T15:32:09;11.43;;;6.50;;
79583;SDS011;69053;57.338;18.700;2024-01-30T15:35:09;11.52;;;7.10;;
79583;SDS011;69053;57.338;18.700;2024-01-30T15:38:10;14.80;;;6.95;;
79583;SDS011;69053;57.338;18.700;2024-01-30T15:41:11;10.93;;;6.82;;
79583;SDS011;69053;57.338;18.700;2024-01-30T15:44:12;13.27;;;7.97;;
79583;SDS011;69053;57.338;18.700;2024-01-30T15:47:12;15.48;;;7.82;;
79583;SDS011;69053;57.338;18.700;2024-01-30T15:50:13;14.10;;;8.23;;
79583;SDS011;69053;57.338;18.700;2024-01-30T15:53:13;14.48;;;7.43;;
79583;SDS011;69053;57.338;18.700;2024-01-30T15:56:14;15.30;;;8.18;;
79583;SDS011;69053;57.338;18.700;2024-01-30T15:59:14;14.18;;;7.03;;
79583;SDS011;69053;57.338;18.700;2024-01-30T16:02:15;16.00;;;7.68;;
79583;SDS011;69053;57.338;18.700;2024-01-30T16:05:15;16.05;;;8.77;;
79583;SDS011;69053;57.338;18.700;2024-01-30T16:08:16;12.52;;;7.20;;
79583;SDS011;69053;57.338;18.700;2024-01-30T16:11:16;12.70;;;5.90;;
79583;SDS011;69053;57.338;18.700;2024-01-30T16:14:17;9.50;;;5.68;;
79583;SDS011;69053;57.338;18.700;2024-01-30T16:17:18;11.48;;;5.32;;
79583;SDS011;69053;57.338;18.700;2024-01-30T16:20:18;10.20;;;5.03;;
79583;SDS011;69053;57.338;18.700;2024-01-30T16:23:19;10.73;;;5.28;;
79583;SDS011;69053;57.338;18.700;2024-01-30T16:26:19;11.38;;;5.70;;
79583;SDS011;69053;57.338;18.700;2024-01-30T16:29:21;9.68;;;5.47;;
79583;SDS011;69053;57.338;18.700;2024-01-30T16:32:21;8.15;;;5.43;;
79583;SDS011;69053;57.338;18.700;2024-01-30T16:35:22;9.48;;;5.90;;
79583;SDS011;69053;57.338;18.700;2024-01-30T16:38:22;10.43;;;5.85;;
79583;SDS011;69053;57.338;18.700;2024-01-30T16:41:22;9.82;;;6.65;;
79583;SDS011;69053;57.338;18.700;2024-01-30T16:44:23;14.57;;;7.95;;
79583;SDS011;69053;57.338;18.700;2024-01-30T16:47:24;15.77;;;8.35;;
79583;SDS011;69053;57.338;18.700;2024-01-30T16:50:25;14.00;;;7.68;;
79583;SDS011;69053;57.338;18.700;2024-01-30T16:53:25;13.43;;;7.00;;
79583;SDS011;69053;57.338;18.700;2024-01-30T16:56:26;9.88;;;6.07;;
79583;SDS011;69053;57.338;18.700;2024-01-30T16:59:26;11.90;;;6.82;;
79583;SDS011;69053;57.338;18.700;2024-01-30T17:02:27;9.80;;;5.75;;
79583;SDS011;69053;57.338;18.700;2024-01-30T17:05:27;10.40;;;6.32;;
79583;SDS011;69053;57.338;18.700;2024-01-30T17:08:28;10.27;;;5.47;;
79583;SDS011;69053;57.338;18.700;2024-01-30T17:11:28;10.95;;;5.78;;
79583;SDS011;69053;57.338;18.700;2024-01-30T17:14:29;11.52;;;6.38;;
79583;SDS011;69053;57.338;18.700;2024-01-30T17:17:30;10.65;;;5.53;;
79583;SDS011;69053;57.338;18.700;2024-01-30T17:20:30;23.45;;;7.03;;
79583;SDS011;69053;57.338;18.700;2024-01-30T17:23:31;14.50;;;6.40;;
79583;SDS011;69053;57.338;18.700;2024-01-30T17:26:34;13.55;;;6.28;;
79583;SDS011;69053;57.338;18.700;2024-01-30T17:29:34;21.20;;;7.43;;
79583;SDS011;69053;57.338;18.700;2024-01-30T17:32:35;17.88;;;7.38;;
79583;SDS011;69053;57.338;18.700;2024-01-30T17:35:35;16.05;;;6.20;;
79583;SDS011;69053;57.338;18.700;2024-01-30T17:38:36;18.15;;;6.95;;
79583;SDS011;69053;57.338;18.700;2024-01-30T17:41:36;18.92;;;8.60;;
79583;SDS011;69053;57.338;18.700;2024-01-30T17:44:37;17.73;;;8.60;;
79583;SDS011;69053;57.338;18.700;2024-01-30T17:47:40;20.50;;;7.93;;